Time;durP1;ratioP1;P1;durP2;ratioP2;P2;SDS_P1;SDS_P2;PMS_P1;PMS_P2;Temp;Humidity;BMP_temperature;BMP_pressure;BME280_temperature;BME280_humidity;BME280_pressure;Samples;Min_cycle;Max_cycle;Signal;HPM_P1;HPM_P2
2022/11/04 00:01:43;;;;;;;;;;;11.70;99.90;;;;;;5074227;28;19929;-73
2022/11/04 00:04:09;;;;;;;;;;;11.70;99.90;;;;;;5073188;28;19927;-73
2022/11/04 00:06:35;;;;;;;;;;;11.60;99.90;;;;;;5075106;28;19974;-74
2022/11/04 00:09:00;;;;;;;;;;;11.90;99.90;;;;;;5057077;28;20285;-74
2022/11/04 00:19:22;;;;;;;;;;;11.30;99.90;;;;;;5115795;28;19924;-70
2022/11/04 00:30:02;;;;;;;;;;;11.90;99.90;;;;;;5095146;28;19965;-70
2022/11/04 00:35:12;;;;;;;;;;;11.50;99.90;;;;;;5075689;28;19960;-70
2022/11/04 00:37:41;;;;;;;;;;;11.70;99.90;;;;;;5076561;28;19971;-70
2022/11/04 00:40:07;;;;;;;;;;;11.60;99.90;;;;;;5095101;28;19932;-70
2022/11/04 00:42:32;;;;;;;;;;;11.60;99.90;;;;;;5076666;28;20425;-70
2022/11/04 00:44:58;;;;;;;;;;;11.60;99.90;;;;;;5075208;28;19975;-70
2022/11/04 00:47:23;;;;;;;;;;;11.40;99.90;;;;;;5094616;28;19974;-70
2022/11/04 00:49:49;;;;;;;;;;;11.50;99.90;;;;;;5059452;28;20048;-70
2022/11/04 00:52:14;;;;;;;;;;;11.40;99.90;;;;;;5076742;28;19963;-70
2022/11/04 00:54:40;;;;;;;;;;;11.40;99.90;;;;;;5058616;28;19928;-70
2022/11/04 00:57:08;;;;;;;;;;;11.50;99.90;;;;;;5076646;28;19924;-70
2022/11/04 00:59:33;;;;;;;;;;;12.10;99.90;;;;;;5058230;28;19924;-69
2022/11/04 01:01:59;;;;;;;;;;;11.50;99.90;;;;;;5094551;28;19920;-70
2022/11/04 01:04:24;;;;;;;;;;;11.40;99.90;;;;;;5074676;28;19956;-70
2022/11/04 01:06:49;;;;;;;;;;;11.30;99.90;;;;;;5075922;28;19920;-70
2022/11/04 01:09:15;;;;;;;;;;;11.30;99.90;;;;;;5076219;28;19928;-70
2022/11/04 01:11:40;;;;;;;;;;;11.60;99.90;;;;;;5059254;28;19920;-70
2022/11/04 01:14:06;;;;;;;;;;;;;;;;;;5093226;28;20334;-70
2022/11/04 01:16:32;;;;;;;;;;;11.40;99.90;;;;;;5075822;28;19927;-70
2022/11/04 01:18:58;;;;;;;;;;;11.70;99.90;;;;;;5075889;28;19924;-70
2022/11/04 01:21:23;;;;;;;;;;;11.60;99.90;;;;;;5059256;28;19924;-70
2022/11/04 01:23:49;;;;;;;;;;;11.40;99.90;;;;;;5058944;28;19967;-71
2022/11/04 01:26:15;;;;;;;;;;;11.40;99.90;;;;;;5075441;28;19920;-70
2022/11/04 01:28:41;;;;;;;;;;;11.80;99.90;;;;;;5094130;28;19926;-70
2022/11/04 01:31:11;;;;;;;;;;;11.40;99.90;;;;;;5075678;28;20010;-70
2022/11/04 01:33:37;;;;;;;;;;;11.40;99.90;;;;;;5095810;28;19958;-70
2022/11/04 01:36:03;;;;;;;;;;;11.50;99.90;;;;;;5079161;28;20322;-70
2022/11/04 01:38:29;;;;;;;;;;;11.30;99.90;;;;;;5096471;28;19924;-70
2022/11/04 01:40:54;;;;;;;;;;;11.80;99.90;;;;;;5077234;28;19920;-70
2022/11/04 01:43:20;;;;;;;;;;;;;;;;;;5075427;28;19920;-70
2022/11/04 01:45:58;;;;;;;;;;;11.20;99.90;;;;;;5092734;28;20305;-70
2022/11/04 01:48:32;;;;;;;;;;;11.40;99.90;;;;;;5093519;28;19928;-70
2022/11/04 01:50:58;;;;;;;;;;;11.40;99.90;;;;;;5058710;28;19920;-70
2022/11/04 01:53:29;;;;;;;;;;;12.60;99.90;;;;;;5075089;28;20397;-69
2022/11/04 01:55:57;;;;;;;;;;;11.40;99.90;;;;;;5074365;28;19920;-70
2022/11/04 01:58:24;;;;;;;;;;;11.30;99.90;;;;;;5059039;28;19935;-70
2022/11/04 02:00:50;;;;;;;;;;;11.40;99.90;;;;;;5075096;28;19980;-70
2022/11/04 02:03:17;;;;;;;;;;;11.40;99.90;;;;;;5074722;28;20006;-70
2022/11/04 02:05:43;;;;;;;;;;;11.60;99.90;;;;;;5074166;28;19924;-69
2022/11/04 02:08:09;;;;;;;;;;;11.40;99.90;;;;;;5075159;28;19924;-70
2022/11/04 02:10:36;;;;;;;;;;;11.50;99.90;;;;;;5057828;28;20397;-70
2022/11/04 02:13:03;;;;;;;;;;;11.50;99.90;;;;;;5075224;28;19956;-70
2022/11/04 02:15:38;;;;;;;;;;;11.60;99.90;;;;;;5057149;28;19972;-70
2022/11/04 02:18:21;;;;;;;;;;;11.50;99.90;;;;;;5074405;28;19989;-70
2022/11/04 02:21:06;;;;;;;;;;;11.50;99.90;;;;;;5074709;28;19920;-70
2022/11/04 02:23:34;;;;;;;;;;;11.40;99.90;;;;;;5057911;28;20310;-70
2022/11/04 02:26:13;;;;;;;;;;;11.50;99.90;;;;;;5073742;28;19920;-70
2022/11/04 02:28:58;;;;;;;;;;;11.40;99.90;;;;;;5074673;28;19927;-70
2022/11/04 02:31:29;;;;;;;;;;;11.30;99.90;;;;;;5072589;28;19928;-70
2022/11/04 02:34:09;;;;;;;;;;;11.40;99.90;;;;;;5070432;28;19921;-69
2022/11/04 02:36:42;;;;;;;;;;;11.50;99.90;;;;;;5058898;28;20393;-69
2022/11/04 02:39:31;;;;;;;;;;;11.50;99.90;;;;;;5074539;28;19924;-70
2022/11/04 02:42:01;;;;;;;;;;;11.50;99.90;;;;;;5092793;28;20006;-69
2022/11/04 02:44:34;;;;;;;;;;;11.50;99.90;;;;;;5073647;28;20378;-70
2022/11/04 02:47:04;;;;;;;;;;;11.50;99.90;;;;;;5057577;28;20381;-70
2022/11/04 02:49:36;;;;;;;;;;;11.50;99.90;;;;;;5092399;28;19927;-70
2022/11/04 02:52:04;;;;;;;;;;;11.90;99.90;;;;;;5074297;28;20389;-69
2022/11/04 02:54:34;;;;;;;;;;;11.50;99.90;;;;;;5073633;28;19943;-70
2022/11/04 02:57:02;;;;;;;;;;;11.60;99.90;;;;;;5074600;28;19924;-70
2022/11/04 02:59:34;;;;;;;;;;;11.50;99.90;;;;;;5057423;28;19920;-70
2022/11/04 03:02:01;;;;;;;;;;;11.20;99.90;;;;;;5074096;28;19924;-70
2022/11/04 03:04:29;;;;;;;;;;;11.30;99.90;;;;;;5073711;28;19927;-69
2022/11/04 03:06:56;;;;;;;;;;;11.40;99.90;;;;;;5074514;28;20295;-70
2022/11/04 03:09:22;;;;;;;;;;;11.50;99.90;;;;;;5092496;28;20115;-70
2022/11/04 03:11:51;;;;;;;;;;;11.20;99.90;;;;;;5074485;28;19928;-70
2022/11/04 03:14:19;;;;;;;;;;;11.50;99.90;;;;;;5073297;28;19920;-70
2022/11/04 03:16:53;;;;;;;;;;;12.10;99.90;;;;;;5073552;28;19927;-70
2022/11/04 03:19:25;;;;;;;;;;;11.20;99.90;;;;;;5074039;28;19924;-69
2022/11/04 03:21:57;;;;;;;;;;;11.40;99.90;;;;;;5092158;28;20512;-69
2022/11/04 03:24:23;;;;;;;;;;;11.20;99.90;;;;;;5056023;28;19924;-70
2022/11/04 03:26:49;;;;;;;;;;;;;;;;;;5091575;28;20035;-70
2022/11/04 03:29:21;;;;;;;;;;;11.30;99.90;;;;;;5076109;28;20346;-70
2022/11/04 03:32:05;;;;;;;;;;;11.40;99.90;;;;;;5078088;28;20014;-70
2022/11/04 03:34:31;;;;;;;;;;;11.40;99.90;;;;;;5076984;28;19983;-70
2022/11/04 03:36:57;;;;;;;;;;;12.10;99.90;;;;;;5078092;28;20038;-70
2022/11/04 03:39:23;;;;;;;;;;;11.40;99.90;;;;;;5077465;28;19989;-71
2022/11/04 03:41:51;;;;;;;;;;;11.40;99.90;;;;;;5078064;28;20014;-71
2022/11/04 03:44:16;;;;;;;;;;;11.10;99.90;;;;;;5060487;28;19927;-70
2022/11/04 03:46:42;;;;;;;;;;;11.40;99.90;;;;;;5077557;28;19924;-71
2022/11/04 03:49:08;;;;;;;;;;;11.00;99.90;;;;;;5096007;28;19920;-70
2022/11/04 03:51:33;;;;;;;;;;;11.10;99.90;;;;;;5096132;28;19920;-71
2022/11/04 03:53:59;;;;;;;;;;;11.00;99.90;;;;;;5076814;28;19920;-70
2022/11/04 03:56:31;;;;;;;;;;;11.20;99.90;;;;;;5077055;28;19924;-70
2022/11/04 03:59:11;;;;;;;;;;;11.20;99.90;;;;;;5077819;28;19924;-71
2022/11/04 04:01:39;;;;;;;;;;;10.80;99.90;;;;;;5061210;28;19927;-70
2022/11/04 04:04:08;;;;;;;;;;;11.00;99.90;;;;;;5081585;28;19928;-70
2022/11/04 04:06:34;;;;;;;;;;;10.90;99.90;;;;;;5100415;28;20417;-71
2022/11/04 04:09:05;;;;;;;;;;;11.10;99.90;;;;;;5081786;28;19920;-70
2022/11/04 04:11:30;;;;;;;;;;;11.00;99.90;;;;;;5096491;28;20032;-70
2022/11/04 04:14:00;;;;;;;;;;;10.90;99.90;;;;;;5094539;28;19941;-70
2022/11/04 04:16:41;;;;;;;;;;;10.90;99.90;;;;;;5076563;28;19920;-71
2022/11/04 04:19:15;;;;;;;;;;;10.70;99.90;;;;;;5077037;28;19978;-71
2022/11/04 04:21:44;;;;;;;;;;;11.20;99.90;;;;;;5077248;28;19939;-70
2022/11/04 04:29:42;;;;;;;;;;;10.80;99.90;;;;;;5094574;28;20366;-70
2022/11/04 04:32:08;;;;;;;;;;;10.80;99.90;;;;;;5076860;28;19974;-70
2022/11/04 04:34:33;;;;;;;;;;;10.80;99.90;;;;;;5094001;28;19922;-70
2022/11/04 04:36:59;;;;;;;;;;;10.90;99.90;;;;;;5094995;28;19926;-70
2022/11/04 04:45:02;;;;;;;;;;;10.60;99.90;;;;;;5093698;28;20003;-70
2022/11/04 04:47:45;;;;;;;;;;;11.00;99.90;;;;;;5094826;28;19928;-70
2022/11/04 04:50:13;;;;;;;;;;;10.70;99.90;;;;;;5076581;28;19927;-70
2022/11/04 04:52:40;;;;;;;;;;;10.80;99.90;;;;;;5094636;28;20003;-70
2022/11/04 04:55:06;;;;;;;;;;;10.70;99.90;;;;;;5075294;28;19920;-70
2022/11/04 04:57:31;;;;;;;;;;;10.70;99.90;;;;;;5059507;28;19993;-70
2022/11/04 04:59:57;;;;;;;;;;;10.60;99.90;;;;;;5059908;28;20019;-70
2022/11/04 05:02:22;;;;;;;;;;;10.40;99.90;;;;;;5094240;28;20389;-70
2022/11/04 05:04:48;;;;;;;;;;;10.70;99.90;;;;;;5075439;28;19928;-70
2022/11/04 05:07:13;;;;;;;;;;;10.70;99.90;;;;;;5094337;28;19963;-70
2022/11/04 05:09:39;;;;;;;;;;;10.70;99.90;;;;;;5076356;28;20321;-70
2022/11/04 05:12:05;;;;;;;;;;;10.60;99.90;;;;;;5094592;28;19920;-71
2022/11/04 05:14:30;;;;;;;;;;;10.70;99.90;;;;;;5093408;28;19970;-70
2022/11/04 05:16:56;;;;;;;;;;;10.70;99.90;;;;;;5075870;28;20032;-70
2022/11/04 05:19:21;;;;;;;;;;;11.10;99.90;;;;;;5075875;28;19924;-70
2022/11/04 05:21:47;;;;;;;;;;;10.60;99.90;;;;;;5059467;28;20052;-70
2022/11/04 05:24:12;;;;;;;;;;;10.70;99.90;;;;;;5093099;28;19984;-71
2022/11/04 05:26:38;;;;;;;;;;;11.00;99.90;;;;;;5075901;28;19927;-70
2022/11/04 05:29:03;;;;;;;;;;;10.90;99.90;;;;;;5075915;28;19927;-70
2022/11/04 05:31:29;;;;;;;;;;;10.80;99.90;;;;;;5093947;28;19927;-70
2022/11/04 05:33:55;;;;;;;;;;;10.40;99.90;;;;;;5092787;28;19928;-70
2022/11/04 05:36:21;;;;;;;;;;;10.70;99.90;;;;;;5075592;28;19955;-70
2022/11/04 05:38:50;;;;;;;;;;;10.70;99.90;;;;;;5075591;28;20386;-70
2022/11/04 05:41:24;;;;;;;;;;;10.60;99.90;;;;;;5075596;28;19920;-71
2022/11/04 05:43:54;;;;;;;;;;;10.60;99.90;;;;;;5074957;28;19920;-69
2022/11/04 05:46:19;;;;;;;;;;;10.50;99.90;;;;;;5075598;28;19920;-70
2022/11/04 05:48:45;;;;;;;;;;;10.60;99.90;;;;;;5093490;28;19926;-70
2022/11/04 05:51:15;;;;;;;;;;;10.40;99.90;;;;;;5074805;28;19921;-70
2022/11/04 05:53:40;;;;;;;;;;;10.50;99.90;;;;;;5075489;28;20292;-70
2022/11/04 05:56:06;;;;;;;;;;;10.60;99.90;;;;;;5057764;28;19946;-70
2022/11/04 05:58:32;;;;;;;;;;;10.30;99.90;;;;;;5075177;28;20519;-70
2022/11/04 06:01:16;;;;;;;;;;;10.30;99.90;;;;;;5093302;28;20282;-70
2022/11/04 06:03:41;;;;;;;;;;;10.50;99.90;;;;;;5075347;28;20263;-70
2022/11/04 06:06:07;;;;;;;;;;;;;;;;;;5074363;28;19943;-70
2022/11/04 06:08:33;;;;;;;;;;;10.40;99.90;;;;;;5075019;28;19931;-70
2022/11/04 06:10:58;;;;;;;;;;;10.10;99.90;;;;;;5058189;28;19920;-70
2022/11/04 06:13:23;;;;;;;;;;;10.30;99.90;;;;;;5074688;28;19923;-70
2022/11/04 06:15:49;;;;;;;;;;;10.20;99.90;;;;;;5075104;28;19920;-70
2022/11/04 06:18:15;;;;;;;;;;;10.00;99.90;;;;;;5074806;28;19930;-70
2022/11/04 06:20:40;;;;;;;;;;;10.30;99.90;;;;;;5074695;28;19920;-70
2022/11/04 06:23:06;;;;;;;;;;;10.10;99.90;;;;;;5075001;28;19947;-70
2022/11/04 06:25:31;;;;;;;;;;;10.30;99.90;;;;;;5091743;28;19963;-70
2022/11/04 06:27:57;;;;;;;;;;;10.20;99.90;;;;;;5060562;28;19920;-70
2022/11/04 06:30:23;;;;;;;;;;;;;;;;;;5096478;28;19959;-70
2022/11/04 06:32:48;;;;;;;;;;;10.00;99.90;;;;;;5095199;28;20003;-70
2022/11/04 06:35:13;;;;;;;;;;;10.10;99.90;;;;;;5075220;28;19966;-70
2022/11/04 06:37:39;;;;;;;;;;;9.90;99.90;;;;;;5074502;28;19924;-70
2022/11/04 06:40:05;;;;;;;;;;;;;;;;;;5074512;28;19920;-70
2022/11/04 06:42:30;;;;;;;;;;;10.10;99.90;;;;;;5074047;28;20089;-70
2022/11/04 06:44:56;;;;;;;;;;;10.00;99.90;;;;;;5091670;28;19920;-70
2022/11/04 06:47:22;;;;;;;;;;;10.30;99.90;;;;;;5092776;28;19985;-70
2022/11/04 06:49:50;;;;;;;;;;;10.00;99.90;;;;;;5092279;28;20362;-70
2022/11/04 06:52:15;;;;;;;;;;;9.90;99.90;;;;;;5074329;28;19967;-70
2022/11/04 06:54:41;;;;;;;;;;;10.20;99.90;;;;;;5091369;28;19920;-70
2022/11/04 06:57:08;;;;;;;;;;;10.20;99.90;;;;;;5072590;28;19928;-71
2022/11/04 06:59:34;;;;;;;;;;;;;;;;;;5056270;28;20335;-70
2022/11/04 07:02:00;;;;;;;;;;;10.00;99.90;;;;;;5074031;28;19927;-70
2022/11/04 07:04:28;;;;;;;;;;;10.10;99.90;;;;;;5055862;28;19921;-70
2022/11/04 07:06:54;;;;;;;;;;;9.90;99.90;;;;;;5055445;28;19967;-70
2022/11/04 07:09:20;;;;;;;;;;;;;;;;;;5052346;28;19974;-70
2022/11/04 07:11:46;;;;;;;;;;;;;;;;;;5067232;28;19928;-70
2022/11/04 07:14:12;;;;;;;;;;;;;;;;;;5069027;28;19931;-70
2022/11/04 07:16:38;;;;;;;;;;;;;;;;;;5065504;28;19920;-70
2022/11/04 07:19:04;;;;;;;;;;;;;;;;;;5065342;28;20386;-70
2022/11/04 07:21:29;;;;;;;;;;;;;;;;;;5068029;28;19920;-70
2022/11/04 07:23:55;;;;;;;;;;;10.10;99.90;;;;;;5068276;28;19962;-70
2022/11/04 07:26:20;;;;;;;;;;;10.10;99.90;;;;;;5061930;28;19924;-70
2022/11/04 07:28:46;;;;;;;;;;;;;;;;;;5066259;28;19928;-70
2022/11/04 07:31:12;;;;;;;;;;;10.30;99.90;;;;;;5076343;28;20393;-70
2022/11/04 07:33:38;;;;;;;;;;;10.10;99.90;;;;;;5063277;28;20007;-70
2022/11/04 07:36:04;;;;;;;;;;;10.30;99.90;;;;;;5083044;28;19959;-70
2022/11/04 07:38:30;;;;;;;;;;;10.20;99.90;;;;;;5069198;28;19978;-71
2022/11/04 07:40:56;;;;;;;;;;;;;;;;;;5069206;28;19955;-70
2022/11/04 07:43:22;;;;;;;;;;;;;;;;;;5079314;28;20501;-70
2022/11/04 07:45:48;;;;;;;;;;;;;;;;;;5062470;28;20389;-71
2022/11/04 07:48:14;;;;;;;;;;;;;;;;;;5083514;28;20023;-70
2022/11/04 07:50:40;;;;;;;;;;;;;;;;;;5071409;28;19927;-71
2022/11/04 07:53:05;;;;;;;;;;;10.30;99.90;;;;;;5072588;28;20359;-71
2022/11/04 07:55:30;;;;;;;;;;;10.60;99.90;;;;;;5055820;28;19920;-70
2022/11/04 07:57:56;;;;;;;;;;;;;;;;;;5086371;28;19978;-71
2022/11/04 08:00:22;;;;;;;;;;;10.70;99.90;;;;;;5076230;28;20003;-71
2022/11/04 08:02:48;;;;;;;;;;;;;;;;;;5090294;28;19963;-71
2022/11/04 08:05:13;;;;;;;;;;;10.40;99.90;;;;;;5071998;28;19990;-71
2022/11/04 08:07:39;;;;;;;;;;;10.50;99.90;;;;;;5056761;28;19924;-71
2022/11/04 08:10:05;;;;;;;;;;;;;;;;;;5091291;28;19927;-71
2022/11/04 08:12:31;;;;;;;;;;;10.60;99.90;;;;;;5091293;28;20295;-70
2022/11/04 08:14:57;;;;;;;;;;;10.40;99.90;;;;;;5091785;28;19927;-71
2022/11/04 08:17:22;;;;;;;;;;;10.80;99.90;;;;;;5076591;28;20403;-71
2022/11/04 08:19:48;;;;;;;;;;;10.80;99.90;;;;;;5059859;28;19927;-71
2022/11/04 08:22:14;;;;;;;;;;;;;;;;;;5094763;28;19946;-71
2022/11/04 08:24:39;;;;;;;;;;;10.70;99.90;;;;;;5059171;28;20300;-71
2022/11/04 08:27:08;;;;;;;;;;;10.90;99.90;;;;;;5059984;28;19927;-71
2022/11/04 08:29:35;;;;;;;;;;;10.80;99.90;;;;;;5094981;28;19920;-71
2022/11/04 08:32:00;;;;;;;;;;;;;;;;;;5094507;28;19927;-71
2022/11/04 08:34:26;;;;;;;;;;;;;;;;;;5075759;28;19920;-71
2022/11/04 08:36:54;;;;;;;;;;;;;;;;;;5059829;28;19974;-71
2022/11/04 08:39:20;;;;;;;;;;;11.10;99.90;;;;;;5094625;28;20007;-71
2022/11/04 08:41:46;;;;;;;;;;;11.30;99.90;;;;;;5076566;28;20360;-71
2022/11/04 08:44:13;;;;;;;;;;;11.40;99.90;;;;;;5075312;28;19924;-71
2022/11/04 08:46:38;;;;;;;;;;;11.40;99.90;;;;;;5076632;28;20267;-71
2022/11/04 08:49:04;;;;;;;;;;;11.30;99.90;;;;;;5076592;28;19942;-71
2022/11/04 08:51:31;;;;;;;;;;;11.10;99.90;;;;;;5059739;28;20361;-71
2022/11/04 08:53:58;;;;;;;;;;;11.10;99.90;;;;;;5075742;28;19920;-70
2022/11/04 08:56:28;;;;;;;;;;;11.50;99.90;;;;;;5099487;28;19990;-71
2022/11/04 08:58:54;;;;;;;;;;;11.60;99.90;;;;;;5081283;28;19928;-70
2022/11/04 09:01:21;;;;;;;;;;;11.40;99.90;;;;;;5100028;28;19920;-71
2022/11/04 09:03:47;;;;;;;;;;;11.60;99.90;;;;;;5075841;28;19920;-71
2022/11/04 09:06:13;;;;;;;;;;;;;;;;;;5093600;28;19924;-70
2022/11/04 09:08:39;;;;;;;;;;;;;;;;;;5076205;28;19920;-70
2022/11/04 09:11:06;;;;;;;;;;;11.70;99.90;;;;;;5074024;28;19927;-70
2022/11/04 09:13:31;;;;;;;;;;;11.80;99.90;;;;;;5076074;28;19963;-70
2022/11/04 09:15:57;;;;;;;;;;;11.70;99.90;;;;;;5057787;28;19990;-70
2022/11/04 09:18:22;;;;;;;;;;;;;;;;;;5075991;28;19935;-70
2022/11/04 09:20:48;;;;;;;;;;;11.70;99.90;;;;;;5075772;28;19920;-72
2022/11/04 09:23:14;;;;;;;;;;;;;;;;;;5075894;28;20446;-70
2022/11/04 09:25:40;;;;;;;;;;;;;;;;;;5091584;28;19927;-70
2022/11/04 09:28:05;;;;;;;;;;;11.90;99.90;;;;;;5093514;28;19928;-70
2022/11/04 09:30:31;;;;;;;;;;;11.90;99.90;;;;;;5059334;28;19920;-71
2022/11/04 09:32:57;;;;;;;;;;;12.10;99.90;;;;;;5075442;28;19920;-71
2022/11/04 09:35:23;;;;;;;;;;;;;;;;;;5092614;28;20151;-70
2022/11/04 09:37:49;;;;;;;;;;;;;;;;;;5093312;28;19930;-72
2022/11/04 09:40:15;;;;;;;;;;;;;;;;;;5093594;28;19943;-70
2022/11/04 09:42:40;;;;;;;;;;;12.20;99.90;;;;;;5075307;28;20386;-70
2022/11/04 09:45:09;;;;;;;;;;;12.00;99.90;;;;;;5092786;28;19924;-70
2022/11/04 09:47:34;;;;;;;;;;;;;;;;;;5074734;28;19920;-71
2022/11/04 09:50:01;;;;;;;;;;;11.90;99.90;;;;;;5074958;28;20300;-71
2022/11/04 09:52:28;;;;;;;;;;;12.10;99.90;;;;;;5074956;28;20378;-71
2022/11/04 09:55:00;;;;;;;;;;;12.10;99.90;;;;;;5057004;28;19924;-70
2022/11/04 09:57:26;;;;;;;;;;;12.00;99.90;;;;;;5075288;28;20431;-71
2022/11/04 09:59:52;;;;;;;;;;;;;;;;;;5057829;28;19924;-71
2022/11/04 10:02:24;;;;;;;;;;;12.10;99.90;;;;;;5074864;28;19920;-72
2022/11/04 10:04:49;;;;;;;;;;;12.30;99.90;;;;;;5074448;28;20283;-70
2022/11/04 10:07:30;;;;;;;;;;;12.80;99.90;;;;;;5074794;28;20027;-71
2022/11/04 10:10:08;;;;;;;;;;;12.70;99.90;;;;;;5073257;28;20309;-72
2022/11/04 10:12:42;;;;;;;;;;;12.90;99.90;;;;;;5074460;28;19924;-72
2022/11/04 10:15:15;;;;;;;;;;;12.80;99.90;;;;;;5073954;28;21818;-70
2022/11/04 10:17:41;;;;;;;;;;;;;;;;;;5074777;28;19924;-70
2022/11/04 10:20:31;;;;;;;;;;;12.90;99.90;;;;;;5093158;28;20014;-71
2022/11/04 10:23:26;;;;;;;;;;;12.80;99.90;;;;;;5074366;28;19958;-70
2022/11/04 10:25:52;;;;;;;;;;;;;;;;;;4983338;28;19922;-70
2022/11/04 10:28:18;;;;;;;;;;;12.90;99.90;;;;;;5038110;28;20321;-70
2022/11/04 10:30:46;;;;;;;;;;;12.80;99.90;;;;;;5072527;28;19931;-70
2022/11/04 10:33:23;;;;;;;;;;;13.00;99.90;;;;;;5054652;28;19966;-71
2022/11/04 10:35:51;;;;;;;;;;;12.90;99.90;;;;;;5077010;28;19920;-72
2022/11/04 10:38:19;;;;;;;;;;;12.20;99.90;;;;;;5091450;28;19924;-71
2022/11/04 10:40:49;;;;;;;;;;;11.90;99.90;;;;;;5092547;28;19924;-71
2022/11/04 10:43:17;;;;;;;;;;;11.80;99.90;;;;;;5057741;28;19923;-71
2022/11/04 10:45:43;;;;;;;;;;;;;;;;;;5091734;28;19928;-71
2022/11/04 10:48:09;;;;;;;;;;;;;;;;;;5074322;28;19920;-71
2022/11/04 10:50:41;;;;;;;;;;;11.80;99.90;;;;;;5073809;28;20442;-71
2022/11/04 10:53:09;;;;;;;;;;;11.70;99.90;;;;;;5074287;28;19924;-71
2022/11/04 10:55:41;;;;;;;;;;;11.90;99.90;;;;;;5073057;28;19920;-71
2022/11/04 10:58:18;;;;;;;;;;;11.80;99.90;;;;;;5074467;28;19928;-71
2022/11/04 11:00:44;;;;;;;;;;;11.80;99.90;;;;;;5091950;28;19920;-71
2022/11/04 11:03:28;;;;;;;;;;;11.80;99.90;;;;;;5091354;28;20403;-71
2022/11/04 11:06:08;;;;;;;;;;;11.70;99.90;;;;;;5072596;28;20313;-70
2022/11/04 11:08:36;;;;;;;;;;;11.80;99.90;;;;;;5071227;28;20601;-71
2022/11/04 11:11:02;;;;;;;;;;;11.90;99.90;;;;;;5074318;28;19979;-71
2022/11/04 11:13:33;;;;;;;;;;;12.30;99.90;;;;;;5091979;28;19920;-71
2022/11/04 11:16:07;;;;;;;;;;;12.30;99.90;;;;;;5091056;28;19927;-71
2022/11/04 11:18:32;;;;;;;;;;;12.70;99.90;;;;;;5073277;28;19924;-71
2022/11/04 11:21:12;;;;;;;;;;;12.80;99.90;;;;;;5073780;28;20400;-71
2022/11/04 11:23:39;;;;;;;;;;;12.60;99.90;;;;;;5073898;28;19920;-71
2022/11/04 11:26:07;;;;;;;;;;;12.60;99.90;;;;;;5091231;28;19924;-71
2022/11/04 11:28:36;;;;;;;;;;;12.50;99.90;;;;;;5073891;28;19920;-71
2022/11/04 11:31:07;;;;;;;;;;;12.70;99.90;;;;;;5091487;28;20324;-71
2022/11/04 11:33:40;;;;;;;;;;;12.30;99.90;;;;;;5073881;28;20003;-71
2022/11/04 11:36:15;;;;;;;;;;;12.30;99.90;;;;;;5091023;28;19920;-71
2022/11/04 11:38:52;;;;;;;;;;;12.20;99.90;;;;;;5056896;28;19924;-70
2022/11/04 11:41:22;;;;;;;;;;;12.40;99.90;;;;;;5073056;28;20397;-71
2022/11/04 11:43:51;;;;;;;;;;;12.80;99.90;;;;;;5073185;28;19935;-68
2022/11/04 11:46:22;;;;;;;;;;;12.80;99.90;;;;;;5053268;28;19921;-68
2022/11/04 11:48:51;;;;;;;;;;;12.70;99.90;;;;;;5036829;28;19928;-68
2022/11/04 11:51:24;;;;;;;;;;;12.80;99.90;;;;;;5089881;28;19920;-69
2022/11/04 11:54:02;;;;;;;;;;;13.00;99.90;;;;;;5088115;28;19920;-69
2022/11/04 11:56:28;;;;;;;;;;;;;;;;;;5072512;28;19920;-69
2022/11/04 11:59:06;;;;;;;;;;;13.00;99.90;;;;;;5053883;28;19934;-69
2022/11/04 12:01:49;;;;;;;;;;;13.30;99.90;;;;;;5072830;28;19931;-69
2022/11/04 12:04:16;;;;;;;;;;;13.10;99.90;;;;;;5069062;28;19921;-69
2022/11/04 12:06:42;;;;;;;;;;;;;;;;;;5071718;28;19927;-69
2022/11/04 12:09:11;;;;;;;;;;;12.90;99.90;;;;;;5088724;28;19924;-69
2022/11/04 12:11:52;;;;;;;;;;;13.10;99.90;;;;;;5047277;28;19920;-70
2022/11/04 12:14:35;;;;;;;;;;;12.90;99.90;;;;;;5055026;28;19927;-69
2022/11/04 12:17:06;;;;;;;;;;;12.90;99.90;;;;;;5074430;23;19931;-73
2022/11/04 12:19:50;;;;;;;;;;;12.80;99.90;;;;;;5073422;28;19928;-72
2022/11/04 12:22:25;;;;;;;;;;;12.80;99.90;;;;;;5072945;28;19925;-73
2022/11/04 12:25:01;;;;;;;;;;;12.90;99.90;;;;;;5073767;28;19978;-72
2022/11/04 12:27:30;;;;;;;;;;;12.80;99.90;;;;;;5054202;28;19920;-73
2022/11/04 12:29:56;;;;;;;;;;;;;;;;;;5069738;28;19927;-73
2022/11/04 12:32:22;;;;;;;;;;;;;;;;;;5053154;28;20211;-73
2022/11/04 12:35:10;;;;;;;;;;;13.00;99.90;;;;;;5053607;28;19921;-72
2022/11/04 12:37:39;;;;;;;;;;;13.10;99.90;;;;;;5057642;28;19928;-72
2022/11/04 12:40:05;;;;;;;;;;;;;;;;;;5052942;28;20019;-72
2022/11/04 12:42:31;;;;;;;;;;;;;;;;;;5053573;28;20008;-71
2022/11/04 12:45:11;;;;;;;;;;;12.90;99.90;;;;;;5051599;28;20395;-71
2022/11/04 12:47:42;;;;;;;;;;;13.10;99.90;;;;;;5069450;28;19925;-72
2022/11/04 12:50:08;;;;;;;;;;;13.30;99.90;;;;;;5052023;28;19982;-73
2022/11/04 12:52:34;;;;;;;;;;;;;;;;;;5054341;28;19925;-72
2022/11/04 12:55:32;;;;;;;;;;;13.20;99.90;;;;;;5052634;28;19964;-72
2022/11/04 12:58:16;;;;;;;;;;;13.30;99.90;;;;;;5020125;28;20233;-72
2022/11/04 13:00:42;;;;;;;;;;;13.20;99.90;;;;;;5053877;28;20019;-72
2022/11/04 13:03:07;;;;;;;;;;;13.30;99.90;;;;;;5069348;28;19921;-71
2022/11/04 13:05:39;;;;;;;;;;;13.30;99.90;;;;;;5052980;28;19970;-72
2022/11/04 13:08:09;;;;;;;;;;;13.30;99.90;;;;;;5069019;28;20011;-71
2022/11/04 13:10:45;;;;;;;;;;;13.30;99.90;;;;;;5053380;28;19932;-71
2022/11/04 13:13:11;;;;;;;;;;;;;;;;;;5069227;28;19921;-71
2022/11/04 13:15:44;;;;;;;;;;;13.50;99.90;;;;;;5050891;28;19998;-72
2022/11/04 13:18:14;;;;;;;;;;;13.30;99.90;;;;;;5053632;28;19960;-72
2022/11/04 13:20:41;;;;;;;;;;;13.40;99.90;;;;;;5052811;28;20019;-71
2022/11/04 13:23:12;;;;;;;;;;;13.50;99.90;;;;;;5068783;28;19924;-71
2022/11/04 13:25:44;;;;;;;;;;;13.60;99.90;;;;;;5052344;28;20008;-71
2022/11/04 13:28:14;;;;;;;;;;;13.60;99.90;;;;;;5053165;28;19966;-73
2022/11/04 13:30:49;;;;;;;;;;;13.50;99.90;;;;;;5053259;28;19943;-72
2022/11/04 13:33:17;;;;;;;;;;;13.70;99.90;;;;;;5052955;28;20321;-72
2022/11/04 13:35:48;;;;;;;;;;;13.80;99.90;;;;;;5051880;28;19948;-72
2022/11/04 13:38:15;;;;;;;;;;;13.50;99.90;;;;;;5068604;28;20015;-72
2022/11/04 13:40:45;;;;;;;;;;;13.70;99.90;;;;;;5068344;28;19925;-71
2022/11/04 13:43:37;;;;;;;;;;;14.00;99.90;;;;;;5068393;28;19921;-72
2022/11/04 13:46:03;;;;;;;;;;;;;;;;;;5067510;28;19971;-72
2022/11/04 13:48:30;;;;;;;;;;;13.80;99.90;;;;;;5051483;28;20356;-71
2022/11/04 13:51:00;;;;;;;;;;;13.50;99.90;;;;;;5067685;28;19968;-73
2022/11/04 13:53:41;;;;;;;;;;;13.80;99.90;;;;;;5041245;28;19921;-72
2022/11/04 13:56:06;;;;;;;;;;;13.50;99.90;;;;;;5030820;28;20319;-72
2022/11/04 13:58:32;;;;;;;;;;;13.60;99.90;;;;;;5032961;28;19932;-71
2022/11/04 14:01:13;;;;;;;;;;;13.70;99.90;;;;;;5031542;28;19928;-71
2022/11/04 14:03:48;;;;;;;;;;;13.10;99.90;;;;;;5032293;28;20315;-71
2022/11/04 14:06:14;;;;;;;;;;;13.30;99.90;;;;;;5050483;28;19967;-72
2022/11/04 14:08:59;;;;;;;;;;;13.10;99.90;;;;;;5067916;28;19964;-72
2022/11/04 14:11:25;;;;;;;;;;;13.00;99.90;;;;;;5051984;28;19920;-71
2022/11/04 14:14:00;;;;;;;;;;;13.10;99.90;;;;;;5066822;28;20350;-70
2022/11/04 14:16:26;;;;;;;;;;;13.00;99.90;;;;;;5067092;28;19921;-71
2022/11/04 14:18:52;;;;;;;;;;;13.20;99.90;;;;;;5067315;28;19990;-71
2022/11/04 14:21:19;;;;;;;;;;;13.00;99.90;;;;;;5067880;28;20433;-72
2022/11/04 14:23:52;;;;;;;;;;;13.00;99.90;;;;;;5067454;28;19925;-71
2022/11/04 14:26:20;;;;;;;;;;;13.10;99.90;;;;;;5067129;28;19970;-72
2022/11/04 14:28:46;;;;;;;;;;;13.10;99.90;;;;;;5052363;28;19920;-72
2022/11/04 14:31:14;;;;;;;;;;;12.90;99.90;;;;;;5067407;28;20012;-72
2022/11/04 14:33:55;;;;;;;;;;;13.00;99.90;;;;;;5052178;28;19952;-72
2022/11/04 14:36:26;;;;;;;;;;;12.90;99.90;;;;;;5067092;28;19932;-72
2022/11/04 14:38:52;;;;;;;;;;;12.90;99.90;;;;;;5051718;28;19928;-72
2022/11/04 14:41:26;;;;;;;;;;;12.80;99.90;;;;;;5067270;28;19924;-73
2022/11/04 14:43:53;;;;;;;;;;;12.80;99.90;;;;;;5051220;28;20386;-72
2022/11/04 14:46:21;;;;;;;;;;;12.60;99.90;;;;;;5051940;28;19928;-72
2022/11/04 14:48:50;;;;;;;;;;;;;;;;;;5051937;28;19921;-72
2022/11/04 14:51:25;;;;;;;;;;;12.50;99.90;;;;;;5050281;28;19928;-72
2022/11/04 14:53:52;;;;;;;;;;;12.60;99.90;;;;;;5039733;28;19956;-72
2022/11/04 14:56:22;;;;;;;;;;;12.70;99.90;;;;;;5066887;28;19921;-72
2022/11/04 14:59:00;;;;;;;;;;;12.60;99.90;;;;;;5050539;28;20020;-72
2022/11/04 15:01:28;;;;;;;;;;;12.40;99.90;;;;;;5051177;28;20291;-71
2022/11/04 15:03:54;;;;;;;;;;;12.50;99.90;;;;;;5066202;28;20290;-71
2022/11/04 15:06:24;;;;;;;;;;;12.50;99.90;;;;;;5067425;28;19928;-71
2022/11/04 15:08:50;;;;;;;;;;;12.50;99.90;;;;;;5033397;28;19928;-71
2022/11/04 15:11:16;;;;;;;;;;;;;;;;;;5066916;28;19921;-73
2022/11/04 15:13:48;;;;;;;;;;;12.30;99.90;;;;;;5051510;28;20409;-71
2022/11/04 15:16:17;;;;;;;;;;;12.20;99.90;;;;;;5051102;28;19921;-72